sensor_id;sensor_type;location;lat;lon;timestamp;P1;durP1;ratioP1;P2;durP2;ratioP2
71626;SDS011;59475;52.464;13.590;2024-01-07T00:01:11;2.83;;;2.50;;
71626;SDS011;59475;52.464;13.590;2024-01-07T00:03:36;4.33;;;2.37;;
71626;SDS011;59475;52.464;13.590;2024-01-07T00:06:05;3.13;;;2.20;;
71626;SDS011;59475;52.464;13.590;2024-01-07T00:08:30;3.10;;;2.23;;
71626;SDS011;59475;52.464;13.590;2024-01-07T00:10:55;5.20;;;2.83;;
71626;SDS011;59475;52.464;13.590;2024-01-07T00:13:21;6.13;;;2.67;;
71626;SDS011;59475;52.464;13.590;2024-01-07T00:15:46;3.50;;;2.80;;
71626;SDS011;59475;52.464;13.590;2024-01-07T00:18:11;5.53;;;2.75;;
71626;SDS011;59475;52.464;13.590;2024-01-07T00:20:37;5.57;;;2.03;;
71626;SDS011;59475;52.464;13.590;2024-01-07T00:23:03;6.63;;;4.00;;
71626;SDS011;59475;52.464;13.590;2024-01-07T00:25:28;4.25;;;2.72;;
71626;SDS011;59475;52.464;13.590;2024-01-07T00:27:53;6.40;;;3.33;;
71626;SDS011;59475;52.464;13.590;2024-01-07T00:30:20;4.43;;;2.58;;
71626;SDS011;59475;52.464;13.590;2024-01-07T00:32:46;1.90;;;1.60;;
71626;SDS011;59475;52.464;13.590;2024-01-07T00:35:11;3.20;;;2.00;;
71626;SDS011;59475;52.464;13.590;2024-01-07T00:37:36;4.73;;;1.93;;
71626;SDS011;59475;52.464;13.590;2024-01-07T00:40:02;5.63;;;1.88;;
71626;SDS011;59475;52.464;13.590;2024-01-07T00:42:29;3.22;;;1.80;;
71626;SDS011;59475;52.464;13.590;2024-01-07T00:44:54;3.37;;;2.10;;
71626;SDS011;59475;52.464;13.590;2024-01-07T00:47:19;2.58;;;2.38;;
71626;SDS011;59475;52.464;13.590;2024-01-07T00:49:45;3.43;;;2.20;;
71626;SDS011;59475;52.464;13.590;2024-01-07T00:52:10;4.53;;;2.10;;
71626;SDS011;59475;52.464;13.590;2024-01-07T00:54:36;4.17;;;2.83;;
71626;SDS011;59475;52.464;13.590;2024-01-07T00:57:01;3.60;;;2.20;;
71626;SDS011;59475;52.464;13.590;2024-01-07T00:59:28;2.03;;;1.93;;
71626;SDS011;59475;52.464;13.590;2024-01-07T01:01:54;4.43;;;2.20;;
71626;SDS011;59475;52.464;13.590;2024-01-07T01:04:20;2.47;;;1.95;;
71626;SDS011;59475;52.464;13.590;2024-01-07T01:06:45;6.30;;;2.10;;
71626;SDS011;59475;52.464;13.590;2024-01-07T01:09:12;2.10;;;1.90;;
71626;SDS011;59475;52.464;13.590;2024-01-07T01:11:37;3.92;;;2.10;;
71626;SDS011;59475;52.464;13.590;2024-01-07T01:14:03;2.97;;;2.30;;
71626;SDS011;59475;52.464;13.590;2024-01-07T01:16:28;3.00;;;1.70;;
71626;SDS011;59475;52.464;13.590;2024-01-07T01:18:53;20.77;;;6.68;;
71626;SDS011;59475;52.464;13.590;2024-01-07T01:21:19;3.50;;;2.03;;
71626;SDS011;59475;52.464;13.590;2024-01-07T01:23:44;1.87;;;1.73;;
71626;SDS011;59475;52.464;13.590;2024-01-07T01:26:09;2.03;;;1.80;;
71626;SDS011;59475;52.464;13.590;2024-01-07T01:28:35;2.33;;;2.10;;
71626;SDS011;59475;52.464;13.590;2024-01-07T01:31:00;2.63;;;2.10;;
71626;SDS011;59475;52.464;13.590;2024-01-07T01:33:26;2.55;;;2.35;;
71626;SDS011;59475;52.464;13.590;2024-01-07T01:35:51;1.97;;;1.47;;
71626;SDS011;59475;52.464;13.590;2024-01-07T01:38:16;3.03;;;2.07;;
71626;SDS011;59475;52.464;13.590;2024-01-07T01:40:42;4.07;;;2.83;;
71626;SDS011;59475;52.464;13.590;2024-01-07T01:43:07;3.17;;;1.67;;
71626;SDS011;59475;52.464;13.590;2024-01-07T01:45:32;3.60;;;2.20;;
71626;SDS011;59475;52.464;13.590;2024-01-07T01:47:58;2.65;;;2.08;;
71626;SDS011;59475;52.464;13.590;2024-01-07T01:50:24;3.13;;;1.47;;
71626;SDS011;59475;52.464;13.590;2024-01-07T01:52:50;1.85;;;1.75;;
71626;SDS011;59475;52.464;13.590;2024-01-07T01:55:16;2.67;;;1.97;;
71626;SDS011;59475;52.464;13.590;2024-01-07T01:57:41;3.17;;;1.92;;
71626;SDS011;59475;52.464;13.590;2024-01-07T02:00:08;3.03;;;2.45;;
71626;SDS011;59475;52.464;13.590;2024-01-07T02:02:34;3.43;;;1.97;;
71626;SDS011;59475;52.464;13.590;2024-01-07T02:05:02;2.53;;;1.77;;
71626;SDS011;59475;52.464;13.590;2024-01-07T02:07:28;1.60;;;1.50;;
71626;SDS011;59475;52.464;13.590;2024-01-07T02:09:55;2.63;;;2.10;;
71626;SDS011;59475;52.464;13.590;2024-01-07T02:12:20;6.00;;;2.10;;
71626;SDS011;59475;52.464;13.590;2024-01-07T02:14:46;2.60;;;1.67;;
71626;SDS011;59475;52.464;13.590;2024-01-07T02:17:11;1.97;;;1.80;;
71626;SDS011;59475;52.464;13.590;2024-01-07T02:19:37;2.22;;;1.80;;
71626;SDS011;59475;52.464;13.590;2024-01-07T02:22:03;2.33;;;1.70;;
71626;SDS011;59475;52.464;13.590;2024-01-07T02:24:28;2.03;;;1.50;;
71626;SDS011;59475;52.464;13.590;2024-01-07T02:26:55;2.90;;;2.28;;
71626;SDS011;59475;52.464;13.590;2024-01-07T02:29:20;2.92;;;2.38;;
71626;SDS011;59475;52.464;13.590;2024-01-07T02:31:46;1.83;;;1.70;;
71626;SDS011;59475;52.464;13.590;2024-01-07T02:34:11;2.93;;;2.23;;
71626;SDS011;59475;52.464;13.590;2024-01-07T02:36:36;4.53;;;1.90;;
71626;SDS011;59475;52.464;13.590;2024-01-07T02:39:02;2.40;;;1.77;;
71626;SDS011;59475;52.464;13.590;2024-01-07T02:41:27;2.20;;;1.98;;
71626;SDS011;59475;52.464;13.590;2024-01-07T02:43:53;2.40;;;1.93;;
71626;SDS011;59475;52.464;13.590;2024-01-07T02:46:19;3.83;;;2.33;;
71626;SDS011;59475;52.464;13.590;2024-01-07T02:48:45;3.85;;;2.42;;
71626;SDS011;59475;52.464;13.590;2024-01-07T02:51:10;1.40;;;1.30;;
71626;SDS011;59475;52.464;13.590;2024-01-07T02:53:35;1.93;;;1.70;;
71626;SDS011;59475;52.464;13.590;2024-01-07T02:56:01;4.23;;;2.43;;
71626;SDS011;59475;52.464;13.590;2024-01-07T02:58:26;2.65;;;2.00;;
71626;SDS011;59475;52.464;13.590;2024-01-07T03:00:51;1.77;;;1.67;;
71626;SDS011;59475;52.464;13.590;2024-01-07T03:03:17;2.40;;;1.87;;
71626;SDS011;59475;52.464;13.590;2024-01-07T03:05:43;3.35;;;2.53;;
71626;SDS011;59475;52.464;13.590;2024-01-07T03:08:08;2.53;;;2.10;;
71626;SDS011;59475;52.464;13.590;2024-01-07T03:10:34;1.83;;;1.73;;
71626;SDS011;59475;52.464;13.590;2024-01-07T03:13:00;3.37;;;2.30;;
71626;SDS011;59475;52.464;13.590;2024-01-07T03:15:25;3.17;;;2.00;;
71626;SDS011;59475;52.464;13.590;2024-01-07T03:17:51;6.73;;;2.20;;
71626;SDS011;59475;52.464;13.590;2024-01-07T03:20:16;3.63;;;2.30;;
71626;SDS011;59475;52.464;13.590;2024-01-07T03:22:41;2.63;;;2.00;;
71626;SDS011;59475;52.464;13.590;2024-01-07T03:25:07;2.25;;;2.05;;
71626;SDS011;59475;52.464;13.590;2024-01-07T03:27:33;1.93;;;1.60;;
71626;SDS011;59475;52.464;13.590;2024-01-07T03:29:58;3.13;;;2.27;;
71626;SDS011;59475;52.464;13.590;2024-01-07T03:32:23;7.75;;;2.13;;
71626;SDS011;59475;52.464;13.590;2024-01-07T03:34:49;3.35;;;2.08;;
71626;SDS011;59475;52.464;13.590;2024-01-07T03:37:14;2.90;;;2.50;;
71626;SDS011;59475;52.464;13.590;2024-01-07T03:39:40;6.07;;;2.70;;
71626;SDS011;59475;52.464;13.590;2024-01-07T03:42:05;3.27;;;1.70;;
71626;SDS011;59475;52.464;13.590;2024-01-07T03:44:36;3.30;;;2.50;;
71626;SDS011;59475;52.464;13.590;2024-01-07T03:47:02;4.00;;;2.60;;
71626;SDS011;59475;52.464;13.590;2024-01-07T03:49:27;3.78;;;2.33;;
71626;SDS011;59475;52.464;13.590;2024-01-07T03:51:52;4.35;;;2.15;;
71626;SDS011;59475;52.464;13.590;2024-01-07T03:54:17;2.37;;;2.17;;
71626;SDS011;59475;52.464;13.590;2024-01-07T03:56:43;2.03;;;1.50;;
71626;SDS011;59475;52.464;13.590;2024-01-07T03:59:08;4.13;;;2.50;;
71626;SDS011;59475;52.464;13.590;2024-01-07T04:01:33;3.63;;;2.10;;
71626;SDS011;59475;52.464;13.590;2024-01-07T04:03:59;2.53;;;2.33;;
71626;SDS011;59475;52.464;13.590;2024-01-07T04:06:24;2.17;;;1.97;;
71626;SDS011;59475;52.464;13.590;2024-01-07T04:08:49;3.63;;;1.87;;
71626;SDS011;59475;52.464;13.590;2024-01-07T04:11:15;2.58;;;2.20;;
71626;SDS011;59475;52.464;13.590;2024-01-07T04:13:40;2.67;;;2.45;;
71626;SDS011;59475;52.464;13.590;2024-01-07T04:16:05;2.27;;;2.07;;
71626;SDS011;59475;52.464;13.590;2024-01-07T04:18:40;6.15;;;2.70;;
71626;SDS011;59475;52.464;13.590;2024-01-07T04:21:08;2.85;;;2.10;;
71626;SDS011;59475;52.464;13.590;2024-01-07T04:23:34;2.10;;;1.97;;
71626;SDS011;59475;52.464;13.590;2024-01-07T04:25:59;2.42;;;1.80;;
71626;SDS011;59475;52.464;13.590;2024-01-07T04:28:25;2.28;;;2.08;;
71626;SDS011;59475;52.464;13.590;2024-01-07T04:30:50;5.07;;;1.83;;
71626;SDS011;59475;52.464;13.590;2024-01-07T04:33:16;2.97;;;2.50;;
71626;SDS011;59475;52.464;13.590;2024-01-07T04:35:41;4.20;;;1.97;;
71626;SDS011;59475;52.464;13.590;2024-01-07T04:38:06;2.20;;;2.00;;
71626;SDS011;59475;52.464;13.590;2024-01-07T04:40:33;2.85;;;2.05;;
71626;SDS011;59475;52.464;13.590;2024-01-07T04:42:58;3.67;;;1.83;;
71626;SDS011;59475;52.464;13.590;2024-01-07T04:45:24;5.15;;;2.33;;
71626;SDS011;59475;52.464;13.590;2024-01-07T04:47:51;1.97;;;1.73;;
71626;SDS011;59475;52.464;13.590;2024-01-07T04:50:16;2.65;;;2.10;;
71626;SDS011;59475;52.464;13.590;2024-01-07T04:52:45;2.80;;;2.50;;
71626;SDS011;59475;52.464;13.590;2024-01-07T04:55:11;1.88;;;1.70;;
71626;SDS011;59475;52.464;13.590;2024-01-07T04:57:36;2.33;;;2.00;;
71626;SDS011;59475;52.464;13.590;2024-01-07T05:00:02;3.80;;;2.30;;
71626;SDS011;59475;52.464;13.590;2024-01-07T05:02:28;3.05;;;1.70;;
71626;SDS011;59475;52.464;13.590;2024-01-07T05:04:54;1.93;;;1.50;;
71626;SDS011;59475;52.464;13.590;2024-01-07T05:07:19;4.43;;;1.60;;
71626;SDS011;59475;52.464;13.590;2024-01-07T05:09:45;1.50;;;1.40;;
71626;SDS011;59475;52.464;13.590;2024-01-07T05:12:10;2.43;;;1.70;;
71626;SDS011;59475;52.464;13.590;2024-01-07T05:14:35;2.90;;;2.33;;
71626;SDS011;59475;52.464;13.590;2024-01-07T05:17:02;2.63;;;2.25;;
71626;SDS011;59475;52.464;13.590;2024-01-07T05:19:28;2.40;;;2.00;;
71626;SDS011;59475;52.464;13.590;2024-01-07T05:21:53;2.17;;;1.97;;
71626;SDS011;59475;52.464;13.590;2024-01-07T05:24:19;3.23;;;2.20;;
71626;SDS011;59475;52.464;13.590;2024-01-07T05:26:44;3.70;;;2.50;;
71626;SDS011;59475;52.464;13.590;2024-01-07T05:29:10;3.47;;;1.65;;
71626;SDS011;59475;52.464;13.590;2024-01-07T05:31:37;2.33;;;1.85;;
71626;SDS011;59475;52.464;13.590;2024-01-07T05:34:03;1.30;;;1.20;;
71626;SDS011;59475;52.464;13.590;2024-01-07T05:36:28;2.00;;;1.73;;
71626;SDS011;59475;52.464;13.590;2024-01-07T05:38:53;2.00;;;1.83;;
71626;SDS011;59475;52.464;13.590;2024-01-07T05:41:19;4.03;;;1.93;;
71626;SDS011;59475;52.464;13.590;2024-01-07T05:43:44;2.37;;;1.93;;
71626;SDS011;59475;52.464;13.590;2024-01-07T05:46:10;2.80;;;2.20;;
71626;SDS011;59475;52.464;13.590;2024-01-07T05:51:14;4.63;;;2.47;;
71626;SDS011;59475;52.464;13.590;2024-01-07T05:53:41;3.13;;;2.13;;
71626;SDS011;59475;52.464;13.590;2024-01-07T05:56:08;3.38;;;2.35;;
71626;SDS011;59475;52.464;13.590;2024-01-07T05:58:33;2.93;;;2.40;;
71626;SDS011;59475;52.464;13.590;2024-01-07T06:00:59;3.20;;;2.70;;
71626;SDS011;59475;52.464;13.590;2024-01-07T06:03:25;2.63;;;2.38;;
71626;SDS011;59475;52.464;13.590;2024-01-07T06:05:51;3.42;;;2.38;;
71626;SDS011;59475;52.464;13.590;2024-01-07T06:08:16;1.80;;;1.70;;
71626;SDS011;59475;52.464;13.590;2024-01-07T06:10:42;4.53;;;2.57;;
71626;SDS011;59475;52.464;13.590;2024-01-07T06:13:08;3.22;;;1.88;;
71626;SDS011;59475;52.464;13.590;2024-01-07T06:15:33;5.20;;;2.43;;
71626;SDS011;59475;52.464;13.590;2024-01-07T06:17:59;3.20;;;2.40;;
71626;SDS011;59475;52.464;13.590;2024-01-07T06:20:24;3.57;;;2.43;;
71626;SDS011;59475;52.464;13.590;2024-01-07T06:22:49;3.90;;;2.30;;
71626;SDS011;59475;52.464;13.590;2024-01-07T06:25:15;4.03;;;2.90;;
71626;SDS011;59475;52.464;13.590;2024-01-07T06:27:41;3.60;;;2.90;;
71626;SDS011;59475;52.464;13.590;2024-01-07T06:30:06;3.72;;;2.13;;
71626;SDS011;59475;52.464;13.590;2024-01-07T06:32:32;4.23;;;2.40;;
71626;SDS011;59475;52.464;13.590;2024-01-07T06:34:58;3.97;;;2.47;;
71626;SDS011;59475;52.464;13.590;2024-01-07T06:37:23;3.53;;;2.35;;
71626;SDS011;59475;52.464;13.590;2024-01-07T06:39:49;2.77;;;2.20;;
71626;SDS011;59475;52.464;13.590;2024-01-07T06:42:14;4.68;;;2.70;;
71626;SDS011;59475;52.464;13.590;2024-01-07T06:44:39;7.97;;;1.93;;
71626;SDS011;59475;52.464;13.590;2024-01-07T06:47:05;3.10;;;2.40;;
71626;SDS011;59475;52.464;13.590;2024-01-07T06:49:30;3.10;;;2.40;;
71626;SDS011;59475;52.464;13.590;2024-01-07T06:51:55;3.63;;;2.30;;
71626;SDS011;59475;52.464;13.590;2024-01-07T06:54:21;4.30;;;2.40;;
71626;SDS011;59475;52.464;13.590;2024-01-07T06:56:46;2.58;;;2.30;;
71626;SDS011;59475;52.464;13.590;2024-01-07T06:59:12;2.95;;;2.00;;
71626;SDS011;59475;52.464;13.590;2024-01-07T07:01:37;2.90;;;2.27;;
71626;SDS011;59475;52.464;13.590;2024-01-07T07:04:03;4.03;;;2.25;;
71626;SDS011;59475;52.464;13.590;2024-01-07T07:06:29;3.57;;;2.40;;
71626;SDS011;59475;52.464;13.590;2024-01-07T07:08:54;2.47;;;2.10;;
71626;SDS011;59475;52.464;13.590;2024-01-07T07:11:20;3.05;;;2.20;;
71626;SDS011;59475;52.464;13.590;2024-01-07T07:13:45;3.03;;;2.70;;
71626;SDS011;59475;52.464;13.590;2024-01-07T07:16:10;4.80;;;2.80;;
71626;SDS011;59475;52.464;13.590;2024-01-07T07:18:37;2.78;;;1.80;;
71626;SDS011;59475;52.464;13.590;2024-01-07T07:21:02;2.87;;;2.00;;
71626;SDS011;59475;52.464;13.590;2024-01-07T07:23:27;5.87;;;2.20;;
71626;SDS011;59475;52.464;13.590;2024-01-07T07:25:53;2.55;;;2.10;;
71626;SDS011;59475;52.464;13.590;2024-01-07T07:28:18;4.55;;;2.88;;
71626;SDS011;59475;52.464;13.590;2024-01-07T07:30:44;4.57;;;2.90;;
71626;SDS011;59475;52.464;13.590;2024-01-07T07:33:09;3.47;;;2.50;;
71626;SDS011;59475;52.464;13.590;2024-01-07T07:35:35;2.50;;;2.23;;
71626;SDS011;59475;52.464;13.590;2024-01-07T07:38:00;4.18;;;2.33;;
71626;SDS011;59475;52.464;13.590;2024-01-07T07:40:25;5.57;;;2.38;;
71626;SDS011;59475;52.464;13.590;2024-01-07T07:42:51;5.20;;;2.73;;
71626;SDS011;59475;52.464;13.590;2024-01-07T07:45:16;4.33;;;2.60;;
71626;SDS011;59475;52.464;13.590;2024-01-07T07:47:42;3.37;;;2.17;;
71626;SDS011;59475;52.464;13.590;2024-01-07T07:50:10;3.05;;;2.20;;
71626;SDS011;59475;52.464;13.590;2024-01-07T07:52:38;2.95;;;2.22;;
71626;SDS011;59475;52.464;13.590;2024-01-07T07:55:03;4.47;;;2.30;;
71626;SDS011;59475;52.464;13.590;2024-01-07T07:57:29;3.10;;;2.30;;
71626;SDS011;59475;52.464;13.590;2024-01-07T07:59:55;2.17;;;1.73;;
71626;SDS011;59475;52.464;13.590;2024-01-07T08:02:20;3.88;;;1.95;;
71626;SDS011;59475;52.464;13.590;2024-01-07T08:04:46;3.60;;;2.30;;
71626;SDS011;59475;52.464;13.590;2024-01-07T08:07:12;2.47;;;1.92;;
71626;SDS011;59475;52.464;13.590;2024-01-07T08:09:37;3.23;;;1.97;;
71626;SDS011;59475;52.464;13.590;2024-01-07T08:12:06;2.17;;;1.92;;
71626;SDS011;59475;52.464;13.590;2024-01-07T08:14:32;3.23;;;2.20;;
71626;SDS011;59475;52.464;13.590;2024-01-07T08:16:58;2.47;;;2.15;;
71626;SDS011;59475;52.464;13.590;2024-01-07T08:19:23;3.50;;;3.08;;
71626;SDS011;59475;52.464;13.590;2024-01-07T08:21:49;5.30;;;2.53;;
71626;SDS011;59475;52.464;13.590;2024-01-07T08:24:14;3.03;;;2.57;;
71626;SDS011;59475;52.464;13.590;2024-01-07T08:26:39;3.30;;;3.00;;
71626;SDS011;59475;52.464;13.590;2024-01-07T08:29:05;3.17;;;2.30;;
71626;SDS011;59475;52.464;13.590;2024-01-07T08:31:31;4.23;;;2.50;;
71626;SDS011;59475;52.464;13.590;2024-01-07T08:33:56;3.23;;;2.70;;
71626;SDS011;59475;52.464;13.590;2024-01-07T08:36:22;2.83;;;2.20;;
71626;SDS011;59475;52.464;13.590;2024-01-07T08:38:48;3.90;;;2.50;;
71626;SDS011;59475;52.464;13.590;2024-01-07T08:41:16;5.03;;;2.85;;
71626;SDS011;59475;52.464;13.590;2024-01-07T08:43:41;3.00;;;2.30;;
71626;SDS011;59475;52.464;13.590;2024-01-07T08:46:07;2.97;;;2.60;;
71626;SDS011;59475;52.464;13.590;2024-01-07T08:48:32;3.90;;;2.53;;
71626;SDS011;59475;52.464;13.590;2024-01-07T08:50:57;3.93;;;2.67;;
71626;SDS011;59475;52.464;13.590;2024-01-07T08:53:23;4.83;;;2.60;;
71626;SDS011;59475;52.464;13.590;2024-01-07T08:55:48;4.47;;;2.90;;
71626;SDS011;59475;52.464;13.590;2024-01-07T08:58:14;2.88;;;2.47;;
71626;SDS011;59475;52.464;13.590;2024-01-07T09:00:40;3.85;;;2.58;;
71626;SDS011;59475;52.464;13.590;2024-01-07T09:03:07;4.57;;;2.92;;
71626;SDS011;59475;52.464;13.590;2024-01-07T09:05:32;6.60;;;3.47;;
71626;SDS011;59475;52.464;13.590;2024-01-07T09:07:57;5.57;;;3.50;;
71626;SDS011;59475;52.464;13.590;2024-01-07T09:10:23;5.73;;;3.40;;
71626;SDS011;59475;52.464;13.590;2024-01-07T09:12:50;4.03;;;2.67;;
71626;SDS011;59475;52.464;13.590;2024-01-07T09:15:17;4.53;;;2.80;;
71626;SDS011;59475;52.464;13.590;2024-01-07T09:17:43;3.80;;;3.10;;
71626;SDS011;59475;52.464;13.590;2024-01-07T09:20:09;3.73;;;2.90;;
71626;SDS011;59475;52.464;13.590;2024-01-07T09:22:35;5.40;;;3.10;;
71626;SDS011;59475;52.464;13.590;2024-01-07T09:25:04;4.53;;;2.65;;
71626;SDS011;59475;52.464;13.590;2024-01-07T09:27:30;6.27;;;3.87;;
71626;SDS011;59475;52.464;13.590;2024-01-07T09:29:56;8.45;;;4.93;;
71626;SDS011;59475;52.464;13.590;2024-01-07T09:32:22;9.33;;;5.33;;
71626;SDS011;59475;52.464;13.590;2024-01-07T09:34:48;5.85;;;3.95;;
71626;SDS011;59475;52.464;13.590;2024-01-07T09:37:13;8.90;;;4.10;;
71626;SDS011;59475;52.464;13.590;2024-01-07T09:39:42;7.70;;;4.10;;
71626;SDS011;59475;52.464;13.590;2024-01-07T09:42:14;6.60;;;4.07;;
71626;SDS011;59475;52.464;13.590;2024-01-07T09:44:41;5.75;;;3.45;;
71626;SDS011;59475;52.464;13.590;2024-01-07T09:47:10;6.55;;;3.47;;
71626;SDS011;59475;52.464;13.590;2024-01-07T09:49:36;8.00;;;4.50;;
71626;SDS011;59475;52.464;13.590;2024-01-07T09:52:02;6.80;;;3.73;;
71626;SDS011;59475;52.464;13.590;2024-01-07T09:54:29;7.72;;;4.18;;
71626;SDS011;59475;52.464;13.590;2024-01-07T09:56:55;10.07;;;3.63;;
71626;SDS011;59475;52.464;13.590;2024-01-07T09:59:29;7.82;;;4.32;;
71626;SDS011;59475;52.464;13.590;2024-01-07T10:01:55;8.57;;;4.03;;
71626;SDS011;59475;52.464;13.590;2024-01-07T10:04:22;6.83;;;4.40;;
71626;SDS011;59475;52.464;13.590;2024-01-07T10:06:49;3.90;;;2.97;;
71626;SDS011;59475;52.464;13.590;2024-01-07T10:09:17;4.93;;;3.20;;
71626;SDS011;59475;52.464;13.590;2024-01-07T10:11:43;3.95;;;3.15;;
71626;SDS011;59475;52.464;13.590;2024-01-07T10:14:08;5.95;;;3.67;;
71626;SDS011;59475;52.464;13.590;2024-01-07T10:16:34;6.37;;;4.07;;
71626;SDS011;59475;52.464;13.590;2024-01-07T10:18:59;5.90;;;3.57;;
71626;SDS011;59475;52.464;13.590;2024-01-07T10:21:25;4.88;;;3.03;;
71626;SDS011;59475;52.464;13.590;2024-01-07T10:23:50;3.23;;;2.70;;
71626;SDS011;59475;52.464;13.590;2024-01-07T10:26:16;5.30;;;2.87;;
71626;SDS011;59475;52.464;13.590;2024-01-07T10:28:41;6.45;;;3.35;;
71626;SDS011;59475;52.464;13.590;2024-01-07T10:31:08;5.00;;;3.30;;
71626;SDS011;59475;52.464;13.590;2024-01-07T10:33:34;7.93;;;4.25;;
71626;SDS011;59475;52.464;13.590;2024-01-07T10:36:05;5.93;;;3.87;;
71626;SDS011;59475;52.464;13.590;2024-01-07T10:38:31;5.88;;;3.58;;
71626;SDS011;59475;52.464;13.590;2024-01-07T10:40:59;6.32;;;3.63;;
71626;SDS011;59475;52.464;13.590;2024-01-07T10:43:26;3.42;;;2.70;;
71626;SDS011;59475;52.464;13.590;2024-01-07T10:45:54;6.00;;;2.97;;
71626;SDS011;59475;52.464;13.590;2024-01-07T10:48:20;4.68;;;2.97;;
71626;SDS011;59475;52.464;13.590;2024-01-07T10:50:47;7.68;;;3.67;;
71626;SDS011;59475;52.464;13.590;2024-01-07T10:53:17;6.60;;;3.77;;
71626;SDS011;59475;52.464;13.590;2024-01-07T10:55:56;6.45;;;3.53;;
71626;SDS011;59475;52.464;13.590;2024-01-07T10:58:28;8.20;;;4.28;;
71626;SDS011;59475;52.464;13.590;2024-01-07T11:01:04;5.43;;;3.97;;
71626;SDS011;59475;52.464;13.590;2024-01-07T11:03:43;7.65;;;4.38;;
71626;SDS011;59475;52.464;13.590;2024-01-07T11:06:22;5.20;;;3.53;;
71626;SDS011;59475;52.464;13.590;2024-01-07T11:08:57;5.25;;;3.85;;
71626;SDS011;59475;52.464;13.590;2024-01-07T11:11:32;5.43;;;4.05;;
71626;SDS011;59475;52.464;13.590;2024-01-07T11:14:03;7.30;;;4.05;;
71626;SDS011;59475;52.464;13.590;2024-01-07T11:16:44;6.60;;;3.40;;
71626;SDS011;59475;52.464;13.590;2024-01-07T11:19:12;7.65;;;4.15;;
71626;SDS011;59475;52.464;13.590;2024-01-07T11:21:39;5.68;;;4.30;;
71626;SDS011;59475;52.464;13.590;2024-01-07T11:24:04;6.70;;;3.90;;
71626;SDS011;59475;52.464;13.590;2024-01-07T11:26:30;6.97;;;4.23;;
71626;SDS011;59475;52.464;13.590;2024-01-07T11:28:56;7.73;;;4.43;;
71626;SDS011;59475;52.464;13.590;2024-01-07T11:34:24;8.38;;;4.35;;
71626;SDS011;59475;52.464;13.590;2024-01-07T11:37:12;9.27;;;5.20;;
71626;SDS011;59475;52.464;13.590;2024-01-07T11:39:48;7.37;;;5.43;;
71626;SDS011;59475;52.464;13.590;2024-01-07T11:42:15;8.00;;;4.75;;
71626;SDS011;59475;52.464;13.590;2024-01-07T11:44:45;6.47;;;4.05;;
71626;SDS011;59475;52.464;13.590;2024-01-07T11:47:17;5.97;;;4.38;;
71626;SDS011;59475;52.464;13.590;2024-01-07T11:49:43;8.80;;;4.70;;
71626;SDS011;59475;52.464;13.590;2024-01-07T11:52:09;7.47;;;4.95;;
71626;SDS011;59475;52.464;13.590;2024-01-07T11:54:35;10.35;;;4.35;;
71626;SDS011;59475;52.464;13.590;2024-01-07T11:57:02;11.85;;;5.30;;
71626;SDS011;59475;52.464;13.590;2024-01-07T11:59:29;8.57;;;4.60;;
71626;SDS011;59475;52.464;13.590;2024-01-07T12:01:54;8.88;;;5.55;;
71626;SDS011;59475;52.464;13.590;2024-01-07T12:04:20;8.60;;;5.43;;
71626;SDS011;59475;52.464;13.590;2024-01-07T12:06:46;9.57;;;5.35;;
71626;SDS011;59475;52.464;13.590;2024-01-07T12:09:12;8.88;;;5.30;;
71626;SDS011;59475;52.464;13.590;2024-01-07T12:11:38;8.75;;;5.00;;
71626;SDS011;59475;52.464;13.590;2024-01-07T12:14:06;12.90;;;5.13;;
71626;SDS011;59475;52.464;13.590;2024-01-07T12:16:32;11.02;;;4.78;;
71626;SDS011;59475;52.464;13.590;2024-01-07T12:18:58;7.63;;;4.95;;
71626;SDS011;59475;52.464;13.590;2024-01-07T12:21:24;6.87;;;4.30;;
71626;SDS011;59475;52.464;13.590;2024-01-07T12:23:51;5.50;;;3.83;;
71626;SDS011;59475;52.464;13.590;2024-01-07T12:26:17;6.15;;;4.15;;
71626;SDS011;59475;52.464;13.590;2024-01-07T12:28:44;10.53;;;4.70;;
71626;SDS011;59475;52.464;13.590;2024-01-07T12:31:10;5.35;;;3.97;;
71626;SDS011;59475;52.464;13.590;2024-01-07T12:33:39;6.57;;;4.30;;
71626;SDS011;59475;52.464;13.590;2024-01-07T12:36:06;7.78;;;4.15;;
71626;SDS011;59475;52.464;13.590;2024-01-07T12:38:32;7.10;;;4.30;;
71626;SDS011;59475;52.464;13.590;2024-01-07T12:40:57;6.57;;;4.20;;
71626;SDS011;59475;52.464;13.590;2024-01-07T12:43:23;8.02;;;4.32;;
71626;SDS011;59475;52.464;13.590;2024-01-07T12:45:49;9.40;;;5.47;;
71626;SDS011;59475;52.464;13.590;2024-01-07T12:48:14;11.03;;;6.40;;
71626;SDS011;59475;52.464;13.590;2024-01-07T12:50:40;9.82;;;5.55;;
71626;SDS011;59475;52.464;13.590;2024-01-07T12:53:05;7.37;;;3.80;;
71626;SDS011;59475;52.464;13.590;2024-01-07T12:55:31;8.07;;;4.70;;
71626;SDS011;59475;52.464;13.590;2024-01-07T12:57:57;7.83;;;5.20;;
71626;SDS011;59475;52.464;13.590;2024-01-07T13:00:23;4.03;;;3.22;;
71626;SDS011;59475;52.464;13.590;2024-01-07T13:02:50;7.65;;;4.40;;
71626;SDS011;59475;52.464;13.590;2024-01-07T13:05:15;7.53;;;4.60;;
71626;SDS011;59475;52.464;13.590;2024-01-07T13:07:41;8.13;;;4.37;;
71626;SDS011;59475;52.464;13.590;2024-01-07T13:10:06;5.70;;;4.78;;
71626;SDS011;59475;52.464;13.590;2024-01-07T13:12:32;5.37;;;4.50;;
71626;SDS011;59475;52.464;13.590;2024-01-07T13:14:57;4.60;;;3.53;;
71626;SDS011;59475;52.464;13.590;2024-01-07T13:17:23;7.80;;;4.77;;
71626;SDS011;59475;52.464;13.590;2024-01-07T13:19:48;6.73;;;4.77;;
71626;SDS011;59475;52.464;13.590;2024-01-07T13:22:13;7.07;;;4.43;;
71626;SDS011;59475;52.464;13.590;2024-01-07T13:24:39;7.63;;;4.88;;
71626;SDS011;59475;52.464;13.590;2024-01-07T13:27:06;7.83;;;4.47;;
71626;SDS011;59475;52.464;13.590;2024-01-07T13:29:33;5.03;;;3.88;;
71626;SDS011;59475;52.464;13.590;2024-01-07T13:31:59;7.37;;;3.80;;
71626;SDS011;59475;52.464;13.590;2024-01-07T13:34:24;8.57;;;5.73;;
71626;SDS011;59475;52.464;13.590;2024-01-07T13:36:50;6.78;;;4.60;;
71626;SDS011;59475;52.464;13.590;2024-01-07T13:39:16;6.67;;;5.30;;
71626;SDS011;59475;52.464;13.590;2024-01-07T13:41:42;6.03;;;4.22;;
71626;SDS011;59475;52.464;13.590;2024-01-07T13:44:09;9.63;;;5.27;;
71626;SDS011;59475;52.464;13.590;2024-01-07T13:46:42;6.22;;;4.05;;
71626;SDS011;59475;52.464;13.590;2024-01-07T13:49:09;8.18;;;4.75;;
71626;SDS011;59475;52.464;13.590;2024-01-07T13:51:35;7.18;;;4.97;;
71626;SDS011;59475;52.464;13.590;2024-01-07T13:54:02;9.07;;;4.75;;
71626;SDS011;59475;52.464;13.590;2024-01-07T13:56:28;6.23;;;3.80;;
71626;SDS011;59475;52.464;13.590;2024-01-07T13:58:54;6.97;;;4.70;;
71626;SDS011;59475;52.464;13.590;2024-01-07T14:01:19;10.03;;;4.57;;
71626;SDS011;59475;52.464;13.590;2024-01-07T14:03:44;5.97;;;4.40;;
71626;SDS011;59475;52.464;13.590;2024-01-07T14:06:10;13.07;;;4.37;;
71626;SDS011;59475;52.464;13.590;2024-01-07T14:08:37;6.10;;;4.18;;
71626;SDS011;59475;52.464;13.590;2024-01-07T14:11:02;5.88;;;4.28;;
71626;SDS011;59475;52.464;13.590;2024-01-07T14:13:28;7.87;;;4.70;;
71626;SDS011;59475;52.464;13.590;2024-01-07T14:15:53;5.93;;;3.97;;
71626;SDS011;59475;52.464;13.590;2024-01-07T14:18:20;6.47;;;3.90;;
71626;SDS011;59475;52.464;13.590;2024-01-07T14:20:47;6.85;;;4.28;;
71626;SDS011;59475;52.464;13.590;2024-01-07T14:23:12;6.03;;;3.73;;
71626;SDS011;59475;52.464;13.590;2024-01-07T14:25:38;5.43;;;4.00;;
71626;SDS011;59475;52.464;13.590;2024-01-07T14:28:05;6.83;;;4.20;;
71626;SDS011;59475;52.464;13.590;2024-01-07T14:30:31;5.13;;;3.80;;
71626;SDS011;59475;52.464;13.590;2024-01-07T14:32:56;6.40;;;3.93;;